sensor_id;sensor_type;location;lat;lon;timestamp;P1;durP1;ratioP1;P2;durP2;ratioP2
38603;SDS011;24924;50.054;8.790;2023-04-23T00:02:09;2.75;;;1.23;;
38603;SDS011;24924;50.054;8.790;2023-04-23T00:04:36;2.88;;;1.50;;
38603;SDS011;24924;50.054;8.790;2023-04-23T00:07:03;3.00;;;1.42;;
38603;SDS011;24924;50.054;8.790;2023-04-23T00:09:29;2.87;;;1.47;;
38603;SDS011;24924;50.054;8.790;2023-04-23T00:11:57;2.80;;;1.35;;
38603;SDS011;24924;50.054;8.790;2023-04-23T00:14:23;2.78;;;1.30;;
38603;SDS011;24924;50.054;8.790;2023-04-23T00:16:50;2.80;;;1.33;;
38603;SDS011;24924;50.054;8.790;2023-04-23T00:19:17;2.70;;;1.23;;
38603;SDS011;24924;50.054;8.790;2023-04-23T00:21:43;2.90;;;1.40;;
38603;SDS011;24924;50.054;8.790;2023-04-23T00:24:10;2.90;;;1.50;;
38603;SDS011;24924;50.054;8.790;2023-04-23T00:26:37;3.22;;;1.60;;
38603;SDS011;24924;50.054;8.790;2023-04-23T00:29:03;2.80;;;1.30;;
38603;SDS011;24924;50.054;8.790;2023-04-23T00:31:29;3.15;;;1.60;;
38603;SDS011;24924;50.054;8.790;2023-04-23T00:33:55;2.90;;;1.47;;
38603;SDS011;24924;50.054;8.790;2023-04-23T00:36:21;2.92;;;1.58;;
38603;SDS011;24924;50.054;8.790;2023-04-23T00:38:47;2.70;;;1.23;;
38603;SDS011;24924;50.054;8.790;2023-04-23T00:41:13;2.80;;;1.30;;
38603;SDS011;24924;50.054;8.790;2023-04-23T00:43:40;3.28;;;1.35;;
38603;SDS011;24924;50.054;8.790;2023-04-23T00:46:07;3.28;;;1.40;;
38603;SDS011;24924;50.054;8.790;2023-04-23T00:48:33;3.17;;;1.58;;
38603;SDS011;24924;50.054;8.790;2023-04-23T00:51:01;2.90;;;1.40;;
38603;SDS011;24924;50.054;8.790;2023-04-23T00:53:29;2.80;;;1.30;;
38603;SDS011;24924;50.054;8.790;2023-04-23T00:55:55;2.80;;;1.40;;
38603;SDS011;24924;50.054;8.790;2023-04-23T00:58:22;2.70;;;1.20;;
38603;SDS011;24924;50.054;8.790;2023-04-23T01:00:48;2.70;;;1.20;;
38603;SDS011;24924;50.054;8.790;2023-04-23T01:03:15;2.80;;;1.30;;
38603;SDS011;24924;50.054;8.790;2023-04-23T01:05:47;3.20;;;1.58;;
38603;SDS011;24924;50.054;8.790;2023-04-23T01:08:14;2.70;;;1.20;;
38603;SDS011;24924;50.054;8.790;2023-04-23T01:10:44;2.70;;;1.20;;
38603;SDS011;24924;50.054;8.790;2023-04-23T01:13:12;2.90;;;1.40;;
38603;SDS011;24924;50.054;8.790;2023-04-23T01:15:38;2.80;;;1.37;;
38603;SDS011;24924;50.054;8.790;2023-04-23T01:18:05;2.70;;;1.27;;
38603;SDS011;24924;50.054;8.790;2023-04-23T01:20:35;2.78;;;1.23;;
38603;SDS011;24924;50.054;8.790;2023-04-23T01:23:02;2.80;;;1.30;;
38603;SDS011;24924;50.054;8.790;2023-04-23T01:25:28;2.85;;;1.40;;
38603;SDS011;24924;50.054;8.790;2023-04-23T01:27:54;2.77;;;1.20;;
38603;SDS011;24924;50.054;8.790;2023-04-23T01:30:21;2.80;;;1.25;;
38603;SDS011;24924;50.054;8.790;2023-04-23T01:32:49;2.70;;;1.17;;
38603;SDS011;24924;50.054;8.790;2023-04-23T01:35:15;2.70;;;1.20;;
38603;SDS011;24924;50.054;8.790;2023-04-23T01:37:42;3.10;;;1.80;;
38603;SDS011;24924;50.054;8.790;2023-04-23T01:40:10;2.70;;;1.10;;
38603;SDS011;24924;50.054;8.790;2023-04-23T01:42:37;2.95;;;1.42;;
38603;SDS011;24924;50.054;8.790;2023-04-23T01:45:03;2.75;;;1.20;;
38603;SDS011;24924;50.054;8.790;2023-04-23T01:47:32;3.15;;;1.75;;
38603;SDS011;24924;50.054;8.790;2023-04-23T01:49:59;2.85;;;1.40;;
38603;SDS011;24924;50.054;8.790;2023-04-23T01:52:25;2.70;;;1.20;;
38603;SDS011;24924;50.054;8.790;2023-04-23T01:54:51;2.70;;;1.20;;
38603;SDS011;24924;50.054;8.790;2023-04-23T01:57:18;2.90;;;1.40;;
38603;SDS011;24924;50.054;8.790;2023-04-23T01:59:48;2.70;;;1.13;;
38603;SDS011;24924;50.054;8.790;2023-04-23T02:02:15;2.97;;;1.63;;
38603;SDS011;24924;50.054;8.790;2023-04-23T02:04:42;2.80;;;1.27;;
38603;SDS011;24924;50.054;8.790;2023-04-23T02:07:09;3.00;;;1.70;;
38603;SDS011;24924;50.054;8.790;2023-04-23T02:09:35;3.00;;;1.50;;
38603;SDS011;24924;50.054;8.790;2023-04-23T02:12:01;2.83;;;1.48;;
38603;SDS011;24924;50.054;8.790;2023-04-23T02:14:28;2.80;;;1.40;;
38603;SDS011;24924;50.054;8.790;2023-04-23T02:16:53;2.90;;;1.47;;
38603;SDS011;24924;50.054;8.790;2023-04-23T02:19:20;2.83;;;1.38;;
38603;SDS011;24924;50.054;8.790;2023-04-23T02:21:47;2.75;;;1.27;;
38603;SDS011;24924;50.054;8.790;2023-04-23T02:24:13;2.78;;;1.30;;
38603;SDS011;24924;50.054;8.790;2023-04-23T02:26:39;2.90;;;1.33;;
38603;SDS011;24924;50.054;8.790;2023-04-23T02:29:05;3.47;;;1.53;;
38603;SDS011;24924;50.054;8.790;2023-04-23T02:31:31;4.53;;;1.65;;
38603;SDS011;24924;50.054;8.790;2023-04-23T02:33:58;3.00;;;1.73;;
38603;SDS011;24924;50.054;8.790;2023-04-23T02:36:26;3.27;;;1.70;;
38603;SDS011;24924;50.054;8.790;2023-04-23T02:38:53;2.70;;;1.13;;
38603;SDS011;24924;50.054;8.790;2023-04-23T02:41:18;2.75;;;1.25;;
38603;SDS011;24924;50.054;8.790;2023-04-23T02:43:45;2.93;;;1.60;;
38603;SDS011;24924;50.054;8.790;2023-04-23T02:46:11;2.90;;;1.48;;
38603;SDS011;24924;50.054;8.790;2023-04-23T02:48:38;2.78;;;1.30;;
38603;SDS011;24924;50.054;8.790;2023-04-23T02:51:06;3.08;;;1.65;;
38603;SDS011;24924;50.054;8.790;2023-04-23T02:53:33;2.90;;;1.50;;
38603;SDS011;24924;50.054;8.790;2023-04-23T02:56:00;2.80;;;1.30;;
38603;SDS011;24924;50.054;8.790;2023-04-23T02:58:28;2.90;;;1.58;;
38603;SDS011;24924;50.054;8.790;2023-04-23T03:00:57;2.90;;;1.52;;
38603;SDS011;24924;50.054;8.790;2023-04-23T03:03:24;2.80;;;1.38;;
38603;SDS011;24924;50.054;8.790;2023-04-23T03:05:51;3.17;;;1.60;;
38603;SDS011;24924;50.054;8.790;2023-04-23T03:08:18;2.90;;;1.40;;
38603;SDS011;24924;50.054;8.790;2023-04-23T03:10:43;2.97;;;1.52;;
38603;SDS011;24924;50.054;8.790;2023-04-23T03:13:09;2.80;;;1.40;;
38603;SDS011;24924;50.054;8.790;2023-04-23T03:15:35;2.72;;;1.30;;
38603;SDS011;24924;50.054;8.790;2023-04-23T03:18:01;2.80;;;1.48;;
38603;SDS011;24924;50.054;8.790;2023-04-23T03:20:29;3.00;;;1.63;;
38603;SDS011;24924;50.054;8.790;2023-04-23T03:22:56;2.80;;;1.30;;
38603;SDS011;24924;50.054;8.790;2023-04-23T03:25:22;2.70;;;1.20;;
38603;SDS011;24924;50.054;8.790;2023-04-23T03:27:51;2.80;;;1.30;;
38603;SDS011;24924;50.054;8.790;2023-04-23T03:30:17;2.80;;;1.30;;
38603;SDS011;24924;50.054;8.790;2023-04-23T03:32:43;2.93;;;1.47;;
38603;SDS011;24924;50.054;8.790;2023-04-23T03:35:10;2.80;;;1.30;;
38603;SDS011;24924;50.054;8.790;2023-04-23T03:37:41;2.72;;;1.30;;
38603;SDS011;24924;50.054;8.790;2023-04-23T03:40:07;2.67;;;1.20;;
38603;SDS011;24924;50.054;8.790;2023-04-23T03:42:37;2.78;;;1.30;;
38603;SDS011;24924;50.054;8.790;2023-04-23T03:45:04;3.07;;;1.77;;
38603;SDS011;24924;50.054;8.790;2023-04-23T03:47:31;3.45;;;1.98;;
38603;SDS011;24924;50.054;8.790;2023-04-23T03:49:58;3.38;;;1.98;;
38603;SDS011;24924;50.054;8.790;2023-04-23T03:52:24;2.90;;;1.60;;
38603;SDS011;24924;50.054;8.790;2023-04-23T03:54:51;3.78;;;1.75;;
38603;SDS011;24924;50.054;8.790;2023-04-23T03:57:20;2.80;;;1.40;;
38603;SDS011;24924;50.054;8.790;2023-04-23T03:59:53;2.85;;;1.38;;
38603;SDS011;24924;50.054;8.790;2023-04-23T04:02:19;3.30;;;1.80;;
38603;SDS011;24924;50.054;8.790;2023-04-23T04:04:45;2.83;;;1.50;;
38603;SDS011;24924;50.054;8.790;2023-04-23T04:07:15;5.97;;;2.07;;
38603;SDS011;24924;50.054;8.790;2023-04-23T04:09:41;2.80;;;1.30;;
38603;SDS011;24924;50.054;8.790;2023-04-23T04:12:07;2.80;;;1.40;;
38603;SDS011;24924;50.054;8.790;2023-04-23T04:14:33;2.80;;;1.30;;
38603;SDS011;24924;50.054;8.790;2023-04-23T04:16:59;3.00;;;1.40;;
38603;SDS011;24924;50.054;8.790;2023-04-23T04:19:25;2.95;;;1.60;;
38603;SDS011;24924;50.054;8.790;2023-04-23T04:21:51;2.70;;;1.27;;
38603;SDS011;24924;50.054;8.790;2023-04-23T04:24:17;2.80;;;1.30;;
38603;SDS011;24924;50.054;8.790;2023-04-23T04:26:43;2.97;;;1.50;;
38603;SDS011;24924;50.054;8.790;2023-04-23T04:29:11;2.90;;;1.48;;
38603;SDS011;24924;50.054;8.790;2023-04-23T04:31:37;2.80;;;1.35;;
38603;SDS011;24924;50.054;8.790;2023-04-23T04:34:04;2.70;;;1.20;;
38603;SDS011;24924;50.054;8.790;2023-04-23T04:36:31;2.80;;;1.30;;
38603;SDS011;24924;50.054;8.790;2023-04-23T04:38:59;2.70;;;1.10;;
38603;SDS011;24924;50.054;8.790;2023-04-23T04:41:25;2.80;;;1.30;;
38603;SDS011;24924;50.054;8.790;2023-04-23T04:43:51;2.70;;;1.17;;
38603;SDS011;24924;50.054;8.790;2023-04-23T04:46:19;2.70;;;1.20;;
38603;SDS011;24924;50.054;8.790;2023-04-23T04:48:48;2.80;;;1.30;;
38603;SDS011;24924;50.054;8.790;2023-04-23T04:51:14;2.70;;;1.13;;
38603;SDS011;24924;50.054;8.790;2023-04-23T04:53:40;3.53;;;1.90;;
38603;SDS011;24924;50.054;8.790;2023-04-23T04:56:07;2.80;;;1.40;;
38603;SDS011;24924;50.054;8.790;2023-04-23T04:58:33;2.77;;;1.30;;
38603;SDS011;24924;50.054;8.790;2023-04-23T05:00:59;2.70;;;1.15;;
38603;SDS011;24924;50.054;8.790;2023-04-23T05:03:25;2.70;;;1.20;;
38603;SDS011;24924;50.054;8.790;2023-04-23T05:05:52;2.80;;;1.30;;
38603;SDS011;24924;50.054;8.790;2023-04-23T05:08:23;2.80;;;1.30;;
38603;SDS011;24924;50.054;8.790;2023-04-23T05:10:49;2.80;;;1.30;;
38603;SDS011;24924;50.054;8.790;2023-04-23T05:13:15;2.70;;;1.20;;
38603;SDS011;24924;50.054;8.790;2023-04-23T05:15:42;2.70;;;1.20;;
38603;SDS011;24924;50.054;8.790;2023-04-23T05:18:08;2.80;;;1.30;;
38603;SDS011;24924;50.054;8.790;2023-04-23T05:20:35;2.80;;;1.30;;
38603;SDS011;24924;50.054;8.790;2023-04-23T05:23:02;2.80;;;1.30;;
38603;SDS011;24924;50.054;8.790;2023-04-23T05:25:29;2.70;;;1.17;;
38603;SDS011;24924;50.054;8.790;2023-04-23T05:27:56;2.80;;;1.50;;
38603;SDS011;24924;50.054;8.790;2023-04-23T05:30:22;2.90;;;1.42;;
38603;SDS011;24924;50.054;8.790;2023-04-23T05:32:48;2.80;;;1.40;;
38603;SDS011;24924;50.054;8.790;2023-04-23T05:35:14;2.80;;;1.40;;
38603;SDS011;24924;50.054;8.790;2023-04-23T05:37:41;2.90;;;1.50;;
38603;SDS011;24924;50.054;8.790;2023-04-23T05:40:07;2.80;;;1.38;;
38603;SDS011;24924;50.054;8.790;2023-04-23T05:42:33;2.78;;;1.30;;
38603;SDS011;24924;50.054;8.790;2023-04-23T05:45:00;2.70;;;1.20;;
38603;SDS011;24924;50.054;8.790;2023-04-23T05:47:27;2.80;;;1.30;;
38603;SDS011;24924;50.054;8.790;2023-04-23T05:49:54;2.80;;;1.25;;
38603;SDS011;24924;50.054;8.790;2023-04-23T05:52:22;2.70;;;1.20;;
38603;SDS011;24924;50.054;8.790;2023-04-23T05:54:48;2.80;;;1.33;;
38603;SDS011;24924;50.054;8.790;2023-04-23T05:57:14;2.80;;;1.37;;
38603;SDS011;24924;50.054;8.790;2023-04-23T05:59:40;2.70;;;1.15;;
38603;SDS011;24924;50.054;8.790;2023-04-23T06:02:06;2.78;;;1.23;;
38603;SDS011;24924;50.054;8.790;2023-04-23T06:04:33;2.80;;;1.30;;
38603;SDS011;24924;50.054;8.790;2023-04-23T06:06:59;2.70;;;1.20;;
38603;SDS011;24924;50.054;8.790;2023-04-23T06:09:25;2.70;;;1.20;;
38603;SDS011;24924;50.054;8.790;2023-04-23T06:11:51;2.80;;;1.30;;
38603;SDS011;24924;50.054;8.790;2023-04-23T06:14:18;2.80;;;1.30;;
38603;SDS011;24924;50.054;8.790;2023-04-23T06:16:44;2.90;;;1.40;;
38603;SDS011;24924;50.054;8.790;2023-04-23T06:19:11;2.80;;;1.38;;
38603;SDS011;24924;50.054;8.790;2023-04-23T06:21:37;3.08;;;1.58;;
38603;SDS011;24924;50.054;8.790;2023-04-23T06:24:03;2.70;;;1.20;;
38603;SDS011;24924;50.054;8.790;2023-04-23T06:26:30;2.70;;;1.17;;
38603;SDS011;24924;50.054;8.790;2023-04-23T06:29:00;2.80;;;1.40;;
38603;SDS011;24924;50.054;8.790;2023-04-23T06:31:33;2.80;;;1.50;;
38603;SDS011;24924;50.054;8.790;2023-04-23T06:33:59;2.83;;;1.40;;
38603;SDS011;24924;50.054;8.790;2023-04-23T06:36:25;2.70;;;1.20;;
38603;SDS011;24924;50.054;8.790;2023-04-23T06:38:52;2.70;;;1.15;;
38603;SDS011;24924;50.054;8.790;2023-04-23T06:41:18;2.70;;;1.20;;
38603;SDS011;24924;50.054;8.790;2023-04-23T06:43:45;3.00;;;1.63;;
38603;SDS011;24924;50.054;8.790;2023-04-23T06:46:19;2.80;;;1.30;;
38603;SDS011;24924;50.054;8.790;2023-04-23T06:48:45;2.80;;;1.30;;
38603;SDS011;24924;50.054;8.790;2023-04-23T06:51:11;2.88;;;1.48;;
38603;SDS011;24924;50.054;8.790;2023-04-23T06:53:37;2.80;;;1.30;;
38603;SDS011;24924;50.054;8.790;2023-04-23T06:56:04;2.70;;;1.10;;
38603;SDS011;24924;50.054;8.790;2023-04-23T06:58:32;2.67;;;1.10;;
38603;SDS011;24924;50.054;8.790;2023-04-23T07:01:02;2.70;;;1.20;;
38603;SDS011;24924;50.054;8.790;2023-04-23T07:03:31;2.80;;;1.40;;
38603;SDS011;24924;50.054;8.790;2023-04-23T07:05:56;2.70;;;1.20;;
38603;SDS011;24924;50.054;8.790;2023-04-23T07:08:22;2.70;;;1.30;;
38603;SDS011;24924;50.054;8.790;2023-04-23T07:10:48;2.70;;;1.20;;
38603;SDS011;24924;50.054;8.790;2023-04-23T07:13:15;2.80;;;1.40;;
38603;SDS011;24924;50.054;8.790;2023-04-23T07:15:41;2.70;;;1.27;;
38603;SDS011;24924;50.054;8.790;2023-04-23T07:18:08;2.80;;;1.27;;
38603;SDS011;24924;50.054;8.790;2023-04-23T07:20:34;2.70;;;1.15;;
38603;SDS011;24924;50.054;8.790;2023-04-23T07:23:00;2.70;;;1.25;;
38603;SDS011;24924;50.054;8.790;2023-04-23T07:25:28;2.70;;;1.20;;
38603;SDS011;24924;50.054;8.790;2023-04-23T07:27:55;2.80;;;1.30;;
38603;SDS011;24924;50.054;8.790;2023-04-23T07:30:22;2.70;;;1.20;;
38603;SDS011;24924;50.054;8.790;2023-04-23T07:32:48;2.70;;;1.10;;
38603;SDS011;24924;50.054;8.790;2023-04-23T07:35:14;2.70;;;1.13;;
38603;SDS011;24924;50.054;8.790;2023-04-23T07:37:40;2.70;;;1.20;;
38603;SDS011;24924;50.054;8.790;2023-04-23T07:40:08;2.70;;;1.20;;
38603;SDS011;24924;50.054;8.790;2023-04-23T07:42:34;2.70;;;1.10;;
38603;SDS011;24924;50.054;8.790;2023-04-23T07:45:00;2.75;;;1.30;;
38603;SDS011;24924;50.054;8.790;2023-04-23T07:47:26;2.70;;;1.17;;
38603;SDS011;24924;50.054;8.790;2023-04-23T07:49:53;2.80;;;1.27;;
38603;SDS011;24924;50.054;8.790;2023-04-23T07:52:19;2.70;;;1.10;;
38603;SDS011;24924;50.054;8.790;2023-04-23T07:54:45;2.70;;;1.20;;
38603;SDS011;24924;50.054;8.790;2023-04-23T07:57:11;2.90;;;1.30;;
38603;SDS011;24924;50.054;8.790;2023-04-23T07:59:38;3.65;;;2.38;;
38603;SDS011;24924;50.054;8.790;2023-04-23T08:02:04;2.77;;;1.33;;
38603;SDS011;24924;50.054;8.790;2023-04-23T08:04:30;2.70;;;1.20;;
38603;SDS011;24924;50.054;8.790;2023-04-23T08:06:57;2.70;;;1.10;;
38603;SDS011;24924;50.054;8.790;2023-04-23T08:09:23;2.70;;;1.20;;
38603;SDS011;24924;50.054;8.790;2023-04-23T08:11:50;2.80;;;1.30;;
38603;SDS011;24924;50.054;8.790;2023-04-23T08:14:17;2.70;;;1.30;;
38603;SDS011;24924;50.054;8.790;2023-04-23T08:16:43;2.95;;;1.45;;
38603;SDS011;24924;50.054;8.790;2023-04-23T08:19:09;2.70;;;1.20;;
38603;SDS011;24924;50.054;8.790;2023-04-23T08:21:37;2.70;;;1.10;;
38603;SDS011;24924;50.054;8.790;2023-04-23T08:24:04;2.80;;;1.30;;
38603;SDS011;24924;50.054;8.790;2023-04-23T08:26:32;2.80;;;1.30;;
38603;SDS011;24924;50.054;8.790;2023-04-23T08:28:58;2.83;;;1.45;;
38603;SDS011;24924;50.054;8.790;2023-04-23T08:31:27;2.70;;;1.20;;
38603;SDS011;24924;50.054;8.790;2023-04-23T08:33:54;2.70;;;1.30;;
38603;SDS011;24924;50.054;8.790;2023-04-23T08:36:20;2.80;;;1.30;;
38603;SDS011;24924;50.054;8.790;2023-04-23T08:38:46;2.70;;;1.17;;
38603;SDS011;24924;50.054;8.790;2023-04-23T08:41:13;2.80;;;1.40;;
38603;SDS011;24924;50.054;8.790;2023-04-23T08:43:45;2.70;;;1.20;;
38603;SDS011;24924;50.054;8.790;2023-04-23T08:46:15;2.70;;;1.20;;
38603;SDS011;24924;50.054;8.790;2023-04-23T08:48:43;2.80;;;1.33;;
38603;SDS011;24924;50.054;8.790;2023-04-23T08:51:10;2.70;;;1.10;;
38603;SDS011;24924;50.054;8.790;2023-04-23T08:53:40;2.80;;;1.40;;
38603;SDS011;24924;50.054;8.790;2023-04-23T08:56:09;2.80;;;1.40;;
38603;SDS011;24924;50.054;8.790;2023-04-23T08:58:37;2.70;;;1.17;;
38603;SDS011;24924;50.054;8.790;2023-04-23T09:01:04;2.70;;;1.02;;
38603;SDS011;24924;50.054;8.790;2023-04-23T09:03:31;2.70;;;1.20;;
38603;SDS011;24924;50.054;8.790;2023-04-23T09:05:58;3.03;;;1.17;;
38603;SDS011;24924;50.054;8.790;2023-04-23T09:08:24;2.70;;;1.20;;
38603;SDS011;24924;50.054;8.790;2023-04-23T09:10:51;2.70;;;1.10;;
38603;SDS011;24924;50.054;8.790;2023-04-23T09:13:19;2.65;;;1.00;;
38603;SDS011;24924;50.054;8.790;2023-04-23T09:15:47;2.70;;;1.17;;
38603;SDS011;24924;50.054;8.790;2023-04-23T09:18:12;2.70;;;1.10;;
38603;SDS011;24924;50.054;8.790;2023-04-23T09:20:39;2.70;;;1.08;;
38603;SDS011;24924;50.054;8.790;2023-04-23T09:23:06;2.70;;;1.20;;
38603;SDS011;24924;50.054;8.790;2023-04-23T09:25:32;2.90;;;1.53;;
38603;SDS011;24924;50.054;8.790;2023-04-23T09:27:58;2.60;;;1.00;;
38603;SDS011;24924;50.054;8.790;2023-04-23T09:30:29;2.70;;;1.10;;
38603;SDS011;24924;50.054;8.790;2023-04-23T09:32:55;2.70;;;1.20;;
38603;SDS011;24924;50.054;8.790;2023-04-23T09:35:21;2.70;;;1.10;;
38603;SDS011;24924;50.054;8.790;2023-04-23T09:37:48;2.80;;;1.27;;
38603;SDS011;24924;50.054;8.790;2023-04-23T09:40:18;2.67;;;1.05;;
38603;SDS011;24924;50.054;8.790;2023-04-23T09:42:48;2.60;;;1.00;;
38603;SDS011;24924;50.054;8.790;2023-04-23T09:45:16;2.70;;;1.15;;
38603;SDS011;24924;50.054;8.790;2023-04-23T09:47:49;2.70;;;1.10;;
38603;SDS011;24924;50.054;8.790;2023-04-23T09:50:18;2.70;;;1.10;;
38603;SDS011;24924;50.054;8.790;2023-04-23T09:52:55;2.65;;;1.00;;
38603;SDS011;24924;50.054;8.790;2023-04-23T09:55:28;2.63;;;1.10;;
38603;SDS011;24924;50.054;8.790;2023-04-23T09:58:09;2.70;;;1.20;;
38603;SDS011;24924;50.054;8.790;2023-04-23T10:00:36;2.70;;;1.10;;
38603;SDS011;24924;50.054;8.790;2023-04-23T10:03:07;2.70;;;1.10;;
38603;SDS011;24924;50.054;8.790;2023-04-23T10:05:40;2.70;;;1.20;;
38603;SDS011;24924;50.054;8.790;2023-04-23T10:08:07;2.60;;;1.10;;
38603;SDS011;24924;50.054;8.790;2023-04-23T10:10:33;2.60;;;1.00;;
38603;SDS011;24924;50.054;8.790;2023-04-23T10:13:00;2.70;;;1.00;;
38603;SDS011;24924;50.054;8.790;2023-04-23T10:15:27;2.70;;;1.10;;
38603;SDS011;24924;50.054;8.790;2023-04-23T10:17:53;2.70;;;1.10;;
38603;SDS011;24924;50.054;8.790;2023-04-23T10:20:23;2.70;;;1.10;;
38603;SDS011;24924;50.054;8.790;2023-04-23T10:22:50;2.67;;;1.00;;
38603;SDS011;24924;50.054;8.790;2023-04-23T10:25:18;2.60;;;1.07;;
38603;SDS011;24924;50.054;8.790;2023-04-23T10:27:47;2.60;;;1.00;;
38603;SDS011;24924;50.054;8.790;2023-04-23T10:30:16;2.70;;;1.00;;
38603;SDS011;24924;50.054;8.790;2023-04-23T10:32:44;2.63;;;1.00;;
38603;SDS011;24924;50.054;8.790;2023-04-23T10:35:13;2.67;;;1.08;;
38603;SDS011;24924;50.054;8.790;2023-04-23T10:37:39;2.77;;;1.13;;
38603;SDS011;24924;50.054;8.790;2023-04-23T10:40:06;2.70;;;1.00;;
38603;SDS011;24924;50.054;8.790;2023-04-23T10:42:35;2.70;;;1.10;;
38603;SDS011;24924;50.054;8.790;2023-04-23T10:45:01;2.70;;;1.10;;
38603;SDS011;24924;50.054;8.790;2023-04-23T10:47:37;2.60;;;1.00;;
38603;SDS011;24924;50.054;8.790;2023-04-23T10:52:49;2.70;;;1.10;;
38603;SDS011;24924;50.054;8.790;2023-04-23T10:55:18;2.70;;;1.10;;
38603;SDS011;24924;50.054;8.790;2023-04-23T11:00:22;2.60;;;1.00;;
38603;SDS011;24924;50.054;8.790;2023-04-23T11:02:49;2.67;;;1.00;;
38603;SDS011;24924;50.054;8.790;2023-04-23T11:05:16;2.60;;;0.90;;
38603;SDS011;24924;50.054;8.790;2023-04-23T11:07:44;2.60;;;0.85;;
38603;SDS011;24924;50.054;8.790;2023-04-23T11:10:27;2.70;;;1.02;;
38603;SDS011;24924;50.054;8.790;2023-04-23T11:12:54;2.60;;;0.93;;
38603;SDS011;24924;50.054;8.790;2023-04-23T11:15:20;2.60;;;1.00;;
38603;SDS011;24924;50.054;8.790;2023-04-23T11:20:13;2.60;;;0.90;;
38603;SDS011;24924;50.054;8.790;2023-04-23T11:22:43;2.60;;;0.90;;
38603;SDS011;24924;50.054;8.790;2023-04-23T11:25:14;2.60;;;1.00;;
38603;SDS011;24924;50.054;8.790;2023-04-23T11:27:48;2.67;;;1.03;;
38603;SDS011;24924;50.054;8.790;2023-04-23T11:30:16;2.60;;;1.00;;
38603;SDS011;24924;50.054;8.790;2023-04-23T11:32:48;2.60;;;0.93;;
38603;SDS011;24924;50.054;8.790;2023-04-23T11:35:15;2.60;;;1.00;;
38603;SDS011;24924;50.054;8.790;2023-04-23T11:37:42;2.70;;;1.10;;
38603;SDS011;24924;50.054;8.790;2023-04-23T11:40:12;2.60;;;0.90;;
38603;SDS011;24924;50.054;8.790;2023-04-23T11:42:46;2.60;;;0.90;;
38603;SDS011;24924;50.054;8.790;2023-04-23T11:45:21;2.60;;;0.90;;
38603;SDS011;24924;50.054;8.790;2023-04-23T11:47:49;2.60;;;0.90;;
38603;SDS011;24924;50.054;8.790;2023-04-23T11:50:20;2.60;;;1.00;;
38603;SDS011;24924;50.054;8.790;2023-04-23T11:52:50;2.60;;;1.00;;
38603;SDS011;24924;50.054;8.790;2023-04-23T11:55:17;2.60;;;1.00;;
38603;SDS011;24924;50.054;8.790;2023-04-23T11:57:44;2.60;;;0.88;;
38603;SDS011;24924;50.054;8.790;2023-04-23T12:02:51;2.60;;;1.00;;
38603;SDS011;24924;50.054;8.790;2023-04-23T12:05:29;2.70;;;1.10;;
38603;SDS011;24924;50.054;8.790;2023-04-23T12:08:11;2.70;;;1.20;;
38603;SDS011;24924;50.054;8.790;2023-04-23T12:10:41;2.80;;;1.02;;
38603;SDS011;24924;50.054;8.790;2023-04-23T12:13:15;2.60;;;0.98;;
38603;SDS011;24924;50.054;8.790;2023-04-23T12:15:48;2.60;;;1.00;;
38603;SDS011;24924;50.054;8.790;2023-04-23T12:18:31;2.60;;;0.87;;
38603;SDS011;24924;50.054;8.790;2023-04-23T12:21:06;2.90;;;1.27;;
38603;SDS011;24924;50.054;8.790;2023-04-23T12:23:34;2.60;;;0.90;;
38603;SDS011;24924;50.054;8.790;2023-04-23T12:26:02;2.60;;;1.00;;
38603;SDS011;24924;50.054;8.790;2023-04-23T12:28:28;2.60;;;1.00;;
38603;SDS011;24924;50.054;8.790;2023-04-23T12:30:59;2.83;;;1.00;;
38603;SDS011;24924;50.054;8.790;2023-04-23T12:33:29;2.60;;;1.00;;
38603;SDS011;24924;50.054;8.790;2023-04-23T12:35:55;2.53;;;0.90;;
38603;SDS011;24924;50.054;8.790;2023-04-23T12:38:22;2.60;;;0.90;;
38603;SDS011;24924;50.054;8.790;2023-04-23T12:40:49;2.80;;;1.00;;
38603;SDS011;24924;50.054;8.790;2023-04-23T12:43:16;2.60;;;1.00;;
38603;SDS011;24924;50.054;8.790;2023-04-23T12:45:42;2.60;;;1.00;;
38603;SDS011;24924;50.054;8.790;2023-04-23T12:48:09;2.60;;;0.90;;
38603;SDS011;24924;50.054;8.790;2023-04-23T12:50:36;2.60;;;0.90;;
38603;SDS011;24924;50.054;8.790;2023-04-23T12:53:02;2.60;;;0.90;;
38603;SDS011;24924;50.054;8.790;2023-04-23T12:55:28;2.60;;;0.80;;
38603;SDS011;24924;50.054;8.790;2023-04-23T12:57:54;2.60;;;0.90;;
38603;SDS011;24924;50.054;8.790;2023-04-23T13:00:21;2.50;;;0.80;;
38603;SDS011;24924;50.054;8.790;2023-04-23T13:02:46;2.60;;;0.90;;
38603;SDS011;24924;50.054;8.790;2023-04-23T13:05:13;2.53;;;0.80;;
38603;SDS011;24924;50.054;8.790;2023-04-23T13:07:39;2.42;;;0.80;;
38603;SDS011;24924;50.054;8.790;2023-04-23T13:10:06;2.60;;;0.90;;
38603;SDS011;24924;50.054;8.790;2023-04-23T13:12:32;2.60;;;1.00;;
38603;SDS011;24924;50.054;8.790;2023-04-23T13:14:58;2.50;;;0.90;;
38603;SDS011;24924;50.054;8.790;2023-04-23T13:17:25;2.60;;;0.90;;
38603;SDS011;24924;50.054;8.790;2023-04-23T13:19:54;2.50;;;0.90;;
38603;SDS011;24924;50.054;8.790;2023-04-23T13:22:20;2.50;;;0.90;;
38603;SDS011;24924;50.054;8.790;2023-04-23T13:24:47;2.63;;;0.97;;
38603;SDS011;24924;50.054;8.790;2023-04-23T13:27:13;2.60;;;0.90;;
38603;SDS011;24924;50.054;8.790;2023-04-23T13:29:38;2.60;;;0.90;;
38603;SDS011;24924;50.054;8.790;2023-04-23T13:32:05;2.60;;;0.90;;
38603;SDS011;24924;50.054;8.790;2023-04-23T13:34:31;2.60;;;0.90;;
38603;SDS011;24924;50.054;8.790;2023-04-23T13:36:58;2.60;;;0.80;;
38603;SDS011;24924;50.054;8.790;2023-04-23T13:39:31;2.60;;;1.00;;
38603;SDS011;24924;50.054;8.790;2023-04-23T13:41:56;2.60;;;1.00;;
38603;SDS011;24924;50.054;8.790;2023-04-23T13:44:22;2.60;;;0.90;;
38603;SDS011;24924;50.054;8.790;2023-04-23T13:46:48;2.60;;;0.87;;
38603;SDS011;24924;50.054;8.790;2023-04-23T13:49:14;2.60;;;1.00;;
38603;SDS011;24924;50.054;8.790;2023-04-23T13:51:41;2.63;;;0.98;;
38603;SDS011;24924;50.054;8.790;2023-04-23T13:54:07;2.53;;;0.80;;
38603;SDS011;24924;50.054;8.790;2023-04-23T13:56:33;2.60;;;0.90;;
38603;SDS011;24924;50.054;8.790;2023-04-23T13:58:59;2.40;;;0.80;;
38603;SDS011;24924;50.054;8.790;2023-04-23T14:01:27;2.50;;;0.90;;
38603;SDS011;24924;50.054;8.790;2023-04-23T14:03:53;2.40;;;0.80;;
38603;SDS011;24924;50.054;8.790;2023-04-23T14:06:20;2.35;;;0.80;;
38603;SDS011;24924;50.054;8.790;2023-04-23T14:08:46;2.30;;;0.70;;
38603;SDS011;24924;50.054;8.790;2023-04-23T14:11:12;2.10;;;0.70;;
38603;SDS011;24924;50.054;8.790;2023-04-23T14:13:38;2.25;;;0.70;;
38603;SDS011;24924;50.054;8.790;2023-04-23T14:16:04;2.30;;;0.63;;
38603;SDS011;24924;50.054;8.790;2023-04-23T14:18:30;2.30;;;0.70;;
38603;SDS011;24924;50.054;8.790;2023-04-23T14:20:57;2.30;;;0.70;;
38603;SDS011;24924;50.054;8.790;2023-04-23T14:25:52;2.47;;;0.90;;
38603;SDS011;24924;50.054;8.790;2023-04-23T14:30:53;2.00;;;0.60;;
38603;SDS011;24924;50.054;8.790;2023-04-23T14:33:20;2.22;;;0.70;;
38603;SDS011;24924;50.054;8.790;2023-04-23T14:35:46;2.67;;;0.90;;
38603;SDS011;24924;50.054;8.790;2023-04-23T14:38:12;2.30;;;0.70;;
38603;SDS011;24924;50.054;8.790;2023-04-23T14:40:38;2.30;;;0.70;;
38603;SDS011;24924;50.054;8.790;2023-04-23T14:43:04;2.20;;;0.70;;
38603;SDS011;24924;50.054;8.790;2023-04-23T14:45:31;2.25;;;0.70;;
38603;SDS011;24924;50.054;8.790;2023-04-23T14:47:57;2.42;;;0.80;;
38603;SDS011;24924;50.054;8.790;2023-04-23T14:50:24;2.20;;;0.70;;
38603;SDS011;24924;50.054;8.790;2023-04-23T14:52:52;1.90;;;0.60;;
38603;SDS011;24924;50.054;8.790;2023-04-23T14:55:19;2.30;;;0.70;;
38603;SDS011;24924;50.054;8.790;2023-04-23T14:57:46;2.47;;;0.80;;
38603;SDS011;24924;50.054;8.790;2023-04-23T15:00:12;2.58;;;0.80;;
38603;SDS011;24924;50.054;8.790;2023-04-23T15:02:39;2.50;;;0.80;;
38603;SDS011;24924;50.054;8.790;2023-04-23T15:05:06;2.37;;;0.80;;